Time;durP1;ratioP1;P1;durP2;ratioP2;P2;SDS_P1;SDS_P2;PMS_P1;PMS_P2;Temp;Humidity;BMP_temperature;BMP_pressure;BME280_temperature;BME280_humidity;BME280_pressure;Samples;Min_cycle;Max_cycle;Signal;HPM_P1;HPM_P2
2022/08/02 00:00:32;;;;;;;10.33;7.87;;;18.30;99.90;;;;;;4991355;28;20037;-88
2022/08/02 00:02:58;;;;;;;10.20;8.00;;;18.20;99.90;;;;;;4991200;28;20027;-88
2022/08/02 00:05:24;;;;;;;13.82;9.20;;;18.20;99.90;;;;;;4990425;28;20035;-88
2022/08/02 00:07:50;;;;;;;15.63;9.80;;;18.10;99.90;;;;;;5020259;23;20133;-52
2022/08/02 00:10:16;;;;;;;18.73;10.10;;;18.10;99.90;;;;;;5011574;28;20128;-53
2022/08/02 00:12:41;;;;;;;11.85;9.68;;;18.00;99.90;;;;;;5011629;28;20544;-53
2022/08/02 00:15:08;;;;;;;13.85;10.50;;;18.00;99.90;;;;;;5011735;28;20037;-53
2022/08/02 00:17:34;;;;;;;16.95;10.70;;;18.00;99.90;;;;;;5011890;28;20041;-53
2022/08/02 00:20:00;;;;;;;13.93;11.15;;;18.00;99.90;;;;;;5011525;28;20021;-53
2022/08/02 00:22:26;;;;;;;11.50;10.00;;;18.00;99.90;;;;;;5011398;28;20065;-53
2022/08/02 00:24:52;;;;;;;15.32;10.27;;;17.90;99.90;;;;;;5011455;28;20084;-53
2022/08/02 00:27:18;;;;;;;12.07;10.40;;;18.00;99.90;;;;;;5011465;28;20018;-53
2022/08/02 00:29:43;;;;;;;12.70;10.98;;;18.10;99.90;;;;;;5011450;28;20541;-53
2022/08/02 00:32:09;;;;;;;15.05;10.90;;;18.00;99.90;;;;;;5011510;28;20034;-53
2022/08/02 00:34:35;;;;;;;13.43;10.18;;;18.00;99.90;;;;;;5011323;28;20073;-54
2022/08/02 00:37:00;;;;;;;15.63;10.65;;;18.10;99.90;;;;;;5010289;28;20029;-54
2022/08/02 00:39:26;;;;;;;16.30;12.80;;;17.90;99.90;;;;;;5011393;28;20488;-53
2022/08/02 00:41:52;;;;;;;15.05;11.27;;;17.70;99.90;;;;;;5011850;28;20030;-54
2022/08/02 00:44:19;;;;;;;14.13;11.48;;;17.50;99.90;;;;;;5011807;28;20045;-54
2022/08/02 00:46:46;;;;;;;16.40;11.70;;;17.50;99.90;;;;;;5011929;28;20036;-54
2022/08/02 00:49:12;;;;;;;18.03;12.73;;;17.30;99.90;;;;;;5012108;28;20116;-54
2022/08/02 00:51:38;;;;;;;14.57;11.98;;;17.40;99.90;;;;;;5012043;28;20045;-54
2022/08/02 00:54:05;;;;;;;17.08;11.73;;;17.30;99.90;;;;;;5011805;28;20026;-55
2022/08/02 00:56:31;;;;;;;14.27;11.68;;;17.40;99.90;;;;;;5011531;28;20022;-54
2022/08/02 00:58:57;;;;;;;17.65;11.32;;;17.40;99.90;;;;;;5010900;28;20026;-54
2022/08/02 01:01:56;;;;;;;16.42;11.80;;;17.30;99.90;;;;;;5011170;28;20094;-53
2022/08/02 01:04:14;;;;;;;17.55;11.48;;;17.30;99.90;;;;;;5006732;28;20109;-54
2022/08/02 01:06:41;;;;;;;15.63;10.85;;;17.20;99.90;;;;;;5011538;28;20022;-53
2022/08/02 01:09:08;;;;;;;15.32;10.95;;;17.30;99.90;;;;;;5011279;28;20050;-53
2022/08/02 01:11:35;;;;;;;14.13;10.27;;;17.30;99.90;;;;;;5011245;28;20034;-54
2022/08/02 01:14:10;;;;;;;15.43;10.88;;;17.30;99.90;;;;;;5011275;28;20473;-54
2022/08/02 01:16:45;;;;;;;19.25;10.63;;;17.40;99.90;;;;;;5009872;28;20033;-53
2022/08/02 01:19:33;;;;;;;16.40;9.77;;;17.50;99.90;;;;;;5011466;28;20476;-53
2022/08/02 01:22:08;;;;;;;19.48;12.35;;;17.40;99.90;;;;;;5011419;28;20053;-54
2022/08/02 01:24:43;;;;;;;19.75;11.10;;;17.40;99.90;;;;;;5010888;28;20580;-54
2022/08/02 01:27:32;;;;;;;17.85;10.95;;;17.30;99.90;;;;;;5011106;28;20088;-54
2022/08/02 01:30:00;;;;;;;16.65;11.50;;;17.50;99.90;;;;;;5009935;28;20041;-54
2022/08/02 01:32:32;;;;;;;13.90;11.38;;;17.40;99.90;;;;;;5010630;28;20021;-54
2022/08/02 01:35:00;;;;;;;12.70;10.20;;;17.40;99.90;;;;;;5010993;28;20033;-54
2022/08/02 01:37:34;;;;;;;13.00;10.52;;;17.50;99.90;;;;;;5010811;28;20032;-54
2022/08/02 01:40:18;;;;;;;12.90;10.27;;;17.50;99.90;;;;;;5009636;28;20445;-54
2022/08/02 01:42:47;;;;;;;13.05;9.98;;;17.60;99.90;;;;;;5010942;28;20113;-54
2022/08/02 01:45:14;;;;;;;14.60;9.20;;;17.50;99.90;;;;;;5010713;28;20485;-53
2022/08/02 01:47:43;;;;;;;14.15;9.80;;;17.60;99.90;;;;;;5010604;28;20376;-54
2022/08/02 01:50:14;;;;;;;15.00;9.23;;;17.60;99.90;;;;;;5010945;28;20049;-53
2022/08/02 01:52:45;;;;;;;14.70;8.95;;;17.70;99.90;;;;;;5010242;28;20501;-53
2022/08/02 01:55:36;;;;;;;11.55;8.15;;;17.70;99.90;;;;;;5010721;28;20822;-53
2022/08/02 01:58:04;;;;;;;12.70;9.45;;;17.70;99.90;;;;;;5010597;28;20052;-53
2022/08/02 02:00:35;;;;;;;9.70;7.55;;;17.80;99.90;;;;;;5010639;28;20021;-53
2022/08/02 02:03:03;;;;;;;10.20;7.80;;;17.80;99.90;;;;;;5010688;28;20026;-53
2022/08/02 02:05:31;;;;;;;17.33;10.68;;;17.90;99.90;;;;;;5010530;28;20045;-53
2022/08/02 02:07:59;;;;;;;13.88;8.77;;;17.80;99.90;;;;;;5002457;28;20022;-53
2022/08/02 02:10:30;;;;;;;14.45;8.95;;;17.60;99.90;;;;;;5009123;28;20058;-54
2022/08/02 02:13:01;;;;;;;14.68;9.57;;;17.50;99.90;;;;;;5010629;28;20097;-54
2022/08/02 02:15:28;;;;;;;13.50;8.68;;;17.50;99.90;;;;;;5010443;28;20030;-53
2022/08/02 02:17:56;;;;;;;11.45;8.27;;;17.50;99.90;;;;;;5010522;28;20115;-54
2022/08/02 02:20:22;;;;;;;13.60;9.77;;;17.40;99.90;;;;;;5010327;28;20044;-53
2022/08/02 02:22:49;;;;;;;16.90;8.75;;;17.50;99.90;;;;;;5010185;28;20113;-54
2022/08/02 02:25:17;;;;;;;13.43;8.73;;;17.50;99.90;;;;;;5010249;28;20053;-53
2022/08/02 02:27:56;;;;;;;16.55;9.77;;;17.50;99.90;;;;;;5009958;28;20480;-53
2022/08/02 02:30:26;;;;;;;13.05;9.30;;;17.40;99.90;;;;;;5010231;28;20188;-53
2022/08/02 02:32:58;;;;;;;17.40;9.52;;;17.10;99.90;;;;;;5009515;28;20030;-53
2022/08/02 02:35:28;;;;;;;14.52;8.63;;;17.10;99.90;;;;;;5009847;28;20022;-54
2022/08/02 02:37:55;;;;;;;17.35;8.60;;;17.20;99.90;;;;;;5010085;28;20397;-54
2022/08/02 02:40:22;;;;;;;11.32;8.55;;;17.30;99.90;;;;;;5010267;28;20030;-53
2022/08/02 02:42:50;;;;;;;14.20;8.90;;;17.30;99.90;;;;;;5010044;28;20520;-53
2022/08/02 02:45:17;;;;;;;13.00;8.88;;;17.20;99.90;;;;;;5010069;28;20484;-53
2022/08/02 02:47:44;;;;;;;13.13;8.15;;;17.00;99.90;;;;;;5010051;28;20018;-53
2022/08/02 02:50:10;;;;;;;;;;;16.80;99.90;;;;;;5010495;28;20030;-54
2022/08/02 02:52:38;;;;;;;15.77;8.85;;;16.70;99.90;;;;;;5010027;28;19910;-53
2022/08/02 02:55:06;;;;;;;15.15;9.93;;;16.50;99.90;;;;;;5010056;28;20033;-53
2022/08/02 02:57:31;;;;;;;;;;;16.50;99.90;;;;;;5010647;28;20061;-54
2022/08/02 02:59:58;;;;;;;15.63;10.20;;;16.60;99.90;;;;;;5009952;28;19910;-53
2022/08/02 03:02:24;;;;;;;19.55;11.75;;;16.50;99.90;;;;;;5009866;28;20033;-53
2022/08/02 03:04:52;;;;;;;20.88;11.90;;;16.50;99.90;;;;;;5009974;28;20052;-54
2022/08/02 03:07:18;;;;;;;18.83;11.48;;;16.50;99.90;;;;;;5009931;28;20022;-54
2022/08/02 03:09:43;;;;;;;21.10;12.90;;;16.50;99.90;;;;;;5009677;28;20061;-53
2022/08/02 03:12:10;;;;;;;22.27;12.60;;;16.50;99.90;;;;;;5009627;28;20041;-53
2022/08/02 03:14:43;;;;;;;22.70;13.68;;;16.40;99.90;;;;;;5009764;28;20034;-53
2022/08/02 03:17:09;;;;;;;20.55;13.32;;;16.50;99.90;;;;;;5009566;28;20022;-54
2022/08/02 03:19:34;;;;;;;19.48;12.80;;;16.60;99.90;;;;;;5009715;28;20056;-53
2022/08/02 03:22:00;;;;;;;15.88;11.75;;;16.50;99.90;;;;;;5009785;28;20030;-53
2022/08/02 03:24:26;;;;;;;21.70;12.98;;;16.50;99.90;;;;;;5009484;28;20145;-53
2022/08/02 03:26:51;;;;;;;17.67;12.07;;;16.30;99.90;;;;;;5003628;28;20114;-54
2022/08/02 03:29:17;;;;;;;22.65;13.45;;;16.40;99.90;;;;;;4993364;28;20031;-54
2022/08/02 03:31:45;;;;;;;26.13;13.60;;;16.30;99.90;;;;;;5001733;28;20057;-54
2022/08/02 03:34:11;;;;;;;20.67;13.25;;;16.40;99.90;;;;;;4989215;28;20121;-53
2022/08/02 03:36:39;;;;;;;17.85;11.65;;;16.40;99.90;;;;;;4989299;28;20041;-53
2022/08/02 03:39:06;;;;;;;19.15;13.00;;;16.50;99.90;;;;;;4991077;28;20030;-53
2022/08/02 03:41:32;;;;;;;;;;;16.60;99.90;;;;;;4992591;28;20045;-53
2022/08/02 03:43:59;;;;;;;20.67;12.00;;;16.70;99.90;;;;;;4993470;28;19964;-53
2022/08/02 03:46:25;;;;;;;18.42;13.38;;;16.70;99.90;;;;;;4992542;28;20026;-54
2022/08/02 03:48:52;;;;;;;30.63;13.05;;;16.80;99.90;;;;;;5000936;28;20143;-53
2022/08/02 03:51:19;;;;;;;19.75;11.85;;;16.80;99.90;;;;;;4991955;28;20543;-54
2022/08/02 03:53:45;;;;;;;18.58;12.68;;;16.80;99.90;;;;;;4992715;28;20035;-55
2022/08/02 03:56:11;;;;;;;15.60;12.48;;;16.70;99.90;;;;;;4991165;28;20096;-54
2022/08/02 03:58:36;;;;;;;17.85;13.52;;;16.70;99.90;;;;;;4990961;28;20026;-55
2022/08/02 04:01:02;;;;;;;18.70;12.18;;;16.80;99.90;;;;;;4991391;28;20019;-53
2022/08/02 04:03:28;;;;;;;20.48;13.18;;;16.70;99.90;;;;;;4991370;28;20077;-54
2022/08/02 04:05:54;;;;;;;19.65;12.88;;;16.80;99.90;;;;;;4991471;28;20038;-54
2022/08/02 04:08:20;;;;;;;20.02;12.20;;;16.80;99.90;;;;;;4989586;28;20541;-54
2022/08/02 04:13:35;;;;;;;20.25;12.68;;;16.80;99.90;;;;;;4990773;28;20056;-54
2022/08/02 04:16:14;;;;;;;20.45;13.10;;;16.90;99.90;;;;;;4990977;28;20033;-54
2022/08/02 04:18:49;;;;;;;18.75;11.95;;;16.90;99.90;;;;;;4990868;28;20022;-53
2022/08/02 04:21:18;;;;;;;19.92;12.57;;;16.90;99.90;;;;;;4990778;28;20022;-54
2022/08/02 04:23:46;;;;;;;20.73;13.55;;;16.80;99.90;;;;;;4991785;28;20138;-53
2022/08/02 04:26:12;;;;;;;20.63;13.07;;;16.80;99.90;;;;;;4992494;28;20039;-54
2022/08/02 04:28:40;;;;;;;20.40;12.93;;;16.90;99.90;;;;;;4992984;28;20022;-54
2022/08/02 04:31:06;;;;;;;21.40;12.93;;;16.90;99.90;;;;;;4992739;28;20076;-54
2022/08/02 04:33:33;;;;;;;17.40;12.60;;;17.00;99.90;;;;;;4992534;28;20034;-54
2022/08/02 04:35:59;;;;;;;19.13;12.38;;;17.10;99.90;;;;;;4992682;28;20057;-54
2022/08/02 04:38:25;;;;;;;22.52;13.15;;;17.10;99.90;;;;;;4992733;28;20065;-54
2022/08/02 04:40:53;;;;;;;23.83;12.50;;;17.00;99.90;;;;;;4992651;28;20049;-53
2022/08/02 04:43:19;;;;;;;24.08;12.35;;;17.00;99.90;;;;;;4992584;28;20048;-53
2022/08/02 04:45:48;;;;;;;25.98;14.07;;;17.00;99.90;;;;;;4992344;28;20509;-53
2022/08/02 04:48:14;;;;;;;20.60;13.85;;;17.00;99.90;;;;;;4992273;28;20030;-54
2022/08/02 04:50:39;;;;;;;18.10;12.70;;;17.00;99.90;;;;;;4992019;28;20039;-54
2022/08/02 04:53:05;;;;;;;16.25;12.43;;;17.10;99.90;;;;;;4992476;28;20025;-54
2022/08/02 04:55:31;;;;;;;19.48;12.30;;;17.10;99.90;;;;;;4990929;28;20035;-54
2022/08/02 04:57:58;;;;;;;17.55;12.23;;;17.00;99.90;;;;;;4992481;28;20027;-54
2022/08/02 05:00:25;;;;;;;20.27;14.77;;;17.10;99.90;;;;;;4992309;28;20490;-54
2022/08/02 05:02:54;;;;;;;20.58;13.43;;;17.00;99.90;;;;;;4992218;28;20116;-54
2022/08/02 05:05:20;;;;;;;19.17;12.23;;;17.00;99.90;;;;;;4990533;28;20405;-54
2022/08/02 05:07:46;;;;;;;18.92;13.55;;;17.10;99.90;;;;;;4991852;28;20019;-53
2022/08/02 05:10:12;;;;;;;20.33;13.15;;;17.10;99.90;;;;;;4992179;28;20057;-53
2022/08/02 05:12:39;;;;;;;19.38;13.00;;;17.10;99.90;;;;;;4992011;28;20445;-54
2022/08/02 05:15:06;;;;;;;20.73;13.40;;;17.10;99.90;;;;;;4990600;28;20105;-54
2022/08/02 05:17:31;;;;;;;22.33;13.93;;;17.10;99.90;;;;;;4991749;28;20438;-53
2022/08/02 05:19:57;;;;;;;23.27;15.45;;;17.10;99.90;;;;;;4991770;28;20472;-54
2022/08/02 05:22:23;;;;;;;28.73;16.67;;;17.10;99.90;;;;;;4991881;28;20034;-54
2022/08/02 05:24:48;;;;;;;24.27;17.38;;;17.10;99.90;;;;;;4991546;28;20496;-54
2022/08/02 05:27:14;;;;;;;26.92;18.77;;;17.20;99.90;;;;;;4990563;28;20030;-54
2022/08/02 05:29:40;;;;;;;27.40;19.95;;;17.20;99.90;;;;;;4991745;28;20466;-54
2022/08/02 05:32:05;;;;;;;25.45;19.92;;;17.20;99.90;;;;;;4991579;28;20065;-54
2022/08/02 05:34:31;;;;;;;27.05;21.80;;;17.20;99.90;;;;;;4991488;28;20101;-54
2022/08/02 05:36:57;;;;;;;27.67;21.13;;;17.30;99.90;;;;;;4991758;28;20030;-54
2022/08/02 05:39:22;;;;;;;26.65;20.20;;;17.30;99.90;;;;;;4991451;28;20417;-53
2022/08/02 05:41:48;;;;;;;26.88;21.17;;;17.40;99.90;;;;;;4991521;28;20102;-54
2022/08/02 05:44:14;;;;;;;31.85;20.17;;;17.50;99.90;;;;;;4991302;28;20038;-54
2022/08/02 05:46:39;;;;;;;24.00;19.55;;;17.40;99.90;;;;;;4991288;28;20105;-54
2022/08/02 05:49:05;;;;;;;26.92;20.98;;;17.40;99.90;;;;;;4990987;28;20018;-54
2022/08/02 05:51:38;;;;;;;25.17;18.10;;;17.50;99.90;;;;;;4991306;28;20038;-54
2022/08/02 05:54:17;;;;;;;24.63;19.23;;;17.50;99.90;;;;;;4989848;28;20033;-55
2022/08/02 05:57:00;;;;;;;22.67;18.23;;;17.60;99.90;;;;;;4991099;28;20030;-54
2022/08/02 05:59:32;;;;;;;26.50;18.48;;;17.60;99.90;;;;;;4990885;28;20489;-53
2022/08/02 06:02:03;;;;;;;22.40;17.38;;;17.60;99.90;;;;;;4982854;28;20466;-54
2022/08/02 06:04:52;;;;;;;24.45;17.88;;;17.60;99.90;;;;;;4990801;28;20049;-54
2022/08/02 06:07:20;;;;;;;27.50;17.60;;;17.70;99.90;;;;;;4986111;28;20034;-53
2022/08/02 06:09:47;;;;;;;26.00;17.75;;;17.70;99.90;;;;;;4990808;28;20161;-53
2022/08/02 06:12:15;;;;;;;;;;;17.80;99.90;;;;;;4991376;28;20052;-53
2022/08/02 06:14:41;;;;;;;22.02;16.45;;;17.80;99.90;;;;;;4990879;28;19937;-53
2022/08/02 06:17:08;;;;;;;25.88;17.33;;;17.90;99.90;;;;;;4991075;28;20058;-54
2022/08/02 06:19:37;;;;;;;22.88;17.17;;;18.00;99.90;;;;;;4990733;28;20030;-54
2022/08/02 06:22:13;;;;;;;23.55;17.45;;;18.00;99.90;;;;;;4990789;28;20034;-54
2022/08/02 06:24:44;;;;;;;21.35;16.33;;;18.10;99.90;;;;;;4989260;28;20136;-54
2022/08/02 06:27:14;;;;;;;25.48;17.25;;;18.20;99.90;;;;;;4989451;28;20030;-54
2022/08/02 06:29:43;;;;;;;27.80;17.83;;;18.30;99.90;;;;;;4990616;28;20123;-54
2022/08/02 06:32:09;;;;;;;29.63;20.17;;;18.40;99.90;;;;;;4990801;28;20030;-54
2022/08/02 06:34:41;;;;;;;44.10;26.85;;;18.40;99.90;;;;;;4990428;28;20045;-54
2022/08/02 06:37:25;;;;;;;34.45;25.60;;;18.50;99.90;;;;;;4989148;28;20030;-54
2022/08/02 06:40:00;;;;;;;35.88;21.42;;;18.60;99.90;;;;;;4989170;28;20034;-54
2022/08/02 06:42:55;;;;;;;23.17;18.02;;;18.60;99.90;;;;;;4990591;28;20023;-53
2022/08/02 06:45:20;;;;;;;25.63;18.35;;;18.70;99.90;;;;;;4990108;28;20355;-53
2022/08/02 06:47:46;;;;;;;20.33;16.52;;;18.70;99.90;;;;;;4990443;28;20522;-52
2022/08/02 06:50:12;;;;;;;22.92;17.85;;;18.80;99.90;;;;;;4990506;28;20113;-53
2022/08/02 06:52:38;;;;;;;29.52;18.05;;;18.80;99.90;;;;;;4990379;28;20101;-53
2022/08/02 06:55:05;;;;;;;21.08;16.85;;;18.80;99.90;;;;;;4990480;28;20030;-53
2022/08/02 06:57:31;;;;;;;25.00;16.70;;;18.90;99.90;;;;;;4990467;28;20030;-53
2022/08/02 07:00:01;;;;;;;19.27;15.05;;;18.90;99.90;;;;;;4990746;28;20053;-54
2022/08/02 07:02:28;;;;;;;18.08;14.68;;;18.90;99.90;;;;;;4990299;28;20116;-53
2022/08/02 07:04:54;;;;;;;21.10;15.38;;;18.90;99.90;;;;;;4990197;28;20081;-53
2022/08/02 07:07:20;;;;;;;22.77;17.70;;;18.90;99.90;;;;;;4990393;28;20041;-53
2022/08/02 07:09:46;;;;;;;25.48;16.33;;;18.90;99.90;;;;;;4990165;28;20042;-53
2022/08/02 07:12:11;;;;;;;20.10;17.17;;;19.00;99.90;;;;;;4990294;28;20311;-53
2022/08/02 07:14:38;;;;;;;21.40;17.50;;;19.10;99.90;;;;;;4993503;28;20397;-54
2022/08/02 07:17:04;;;;;;;23.45;17.77;;;19.10;99.90;;;;;;4994193;28;20478;-54
2022/08/02 07:19:30;;;;;;;21.77;17.55;;;19.10;99.90;;;;;;4994212;28;20034;-53
2022/08/02 07:21:55;;;;;;;24.25;19.75;;;19.20;99.90;;;;;;4986217;28;20389;-54
2022/08/02 07:24:21;;;;;;;27.73;20.35;;;19.20;99.90;;;;;;4993844;28;20034;-54
2022/08/02 07:26:47;;;;;;;24.02;19.63;;;19.30;99.90;;;;;;4993942;28;20481;-54
2022/08/02 07:29:12;;;;;;;24.63;20.83;;;19.30;99.90;;;;;;4993845;28;20405;-54
2022/08/02 07:31:38;;;;;;;24.67;21.75;;;19.40;99.90;;;;;;4994006;28;20026;-57
2022/08/02 07:34:04;;;;;;;26.27;22.42;;;19.50;99.90;;;;;;4993758;28;20501;-53
2022/08/02 07:36:30;;;;;;;27.38;22.08;;;19.50;99.90;;;;;;4993799;28;20034;-54
2022/08/02 07:38:56;;;;;;;26.20;21.88;;;19.50;99.90;;;;;;4985830;28;20432;-53
2022/08/02 07:41:22;;;;;;;29.83;21.77;;;19.60;99.90;;;;;;4993807;28;20470;-53
2022/08/02 07:43:48;;;;;;;29.63;21.40;;;19.60;99.90;;;;;;4993448;28;20041;-53
2022/08/02 07:46:14;;;;;;;27.52;20.35;;;19.60;99.90;;;;;;4993817;28;20038;-53
2022/08/02 07:48:39;;;;;;;25.05;20.13;;;19.60;99.90;;;;;;4993567;28;20440;-53
2022/08/02 07:51:05;;;;;;;25.02;20.27;;;19.60;99.90;;;;;;4993396;28;20487;-53
2022/08/02 07:53:31;;;;;;;22.58;18.98;;;19.60;99.90;;;;;;4993454;28;20022;-53
2022/08/02 07:55:56;;;;;;;26.95;20.00;;;19.60;99.90;;;;;;4993277;28;20100;-53
2022/08/02 07:58:22;;;;;;;23.33;19.63;;;19.60;99.90;;;;;;4993411;28;20508;-53
2022/08/02 08:00:48;;;;;;;26.13;21.27;;;19.60;99.90;;;;;;4993559;28;20517;-53
2022/08/02 08:03:13;;;;;;;26.65;22.70;;;19.60;99.90;;;;;;4993576;28;20378;-54
2022/08/02 08:05:39;;;;;;;27.73;21.38;;;19.60;99.90;;;;;;4993068;28;20141;-54
2022/08/02 08:08:05;;;;;;;26.67;21.00;;;19.70;99.90;;;;;;4992998;28;20047;-54
2022/08/02 08:10:31;;;;;;;22.83;18.67;;;19.70;99.90;;;;;;4993162;28;20038;-54
2022/08/02 08:12:57;;;;;;;20.20;17.70;;;19.70;99.90;;;;;;4993069;28;20030;-53
2022/08/02 08:15:22;;;;;;;19.98;16.50;;;19.80;99.90;;;;;;4993197;28;20038;-54
2022/08/02 08:17:48;;;;;;;22.38;16.52;;;19.90;99.90;;;;;;4993118;28;20604;-54
2022/08/02 08:20:14;;;;;;;19.75;16.15;;;19.90;99.90;;;;;;4992950;28;20030;-53
2022/08/02 08:22:39;;;;;;;17.45;15.55;;;19.90;99.90;;;;;;4993156;28;20506;-53
2022/08/02 08:25:05;;;;;;;19.83;16.98;;;20.00;99.90;;;;;;4992339;28;20529;-54
2022/08/02 08:27:31;;;;;;;18.55;15.20;;;20.00;99.90;;;;;;4992760;28;20027;-53
2022/08/02 08:29:57;;;;;;;18.67;15.02;;;20.10;99.90;;;;;;4992968;28;20487;-53
2022/08/02 08:32:22;;;;;;;16.30;14.60;;;20.20;99.90;;;;;;4992960;28;20485;-54
2022/08/02 08:34:50;;;;;;;17.30;15.30;;;20.30;99.90;;;;;;4992481;28;20113;-54
2022/08/02 08:37:15;;;;;;;19.17;14.75;;;20.20;99.90;;;;;;4992760;28;20034;-54
2022/08/02 08:39:41;;;;;;;17.77;13.35;;;20.30;99.90;;;;;;4992587;28;20516;-54
2022/08/02 08:42:07;;;;;;;17.77;13.73;;;20.50;99.90;;;;;;4992639;28;20030;-53
2022/08/02 08:44:36;;;;;;;15.67;13.00;;;20.50;99.90;;;;;;4992481;28;20045;-54
2022/08/02 08:47:03;;;;;;;15.23;13.13;;;20.50;99.90;;;;;;4991124;28;20478;-54
2022/08/02 08:49:39;;;;;;;14.45;12.90;;;20.70;99.90;;;;;;4992708;28;20038;-54
2022/08/02 08:52:05;;;;;;;15.60;11.48;;;20.70;99.90;;;;;;4985689;28;20521;-54
2022/08/02 08:54:34;;;;;;;13.00;10.03;;;20.80;99.90;;;;;;4992276;28;20109;-53
2022/08/02 08:57:02;;;;;;;15.80;10.48;;;20.90;99.90;;;;;;4992356;28;20502;-54
2022/08/02 08:59:28;;;;;;;20.15;11.23;;;21.00;99.90;;;;;;4992415;28;20026;-53
2022/08/02 09:01:55;;;;;;;13.93;11.07;;;21.00;99.90;;;;;;4992226;28;20420;-54
2022/08/02 09:04:21;;;;;;;21.35;11.43;;;21.10;99.90;;;;;;4992178;28;20077;-53
2022/08/02 09:06:47;;;;;;;14.68;10.13;;;21.20;99.90;;;;;;4992231;28;20493;-53
2022/08/02 09:09:13;;;;;;;16.92;11.80;;;21.30;99.90;;;;;;4991824;28;20057;-53
2022/08/02 09:11:38;;;;;;;16.67;9.75;;;21.30;99.90;;;;;;4992134;28;20030;-54
2022/08/02 09:14:04;;;;;;;15.43;9.63;;;21.40;99.90;;;;;;4992134;28;20097;-53
2022/08/02 09:16:41;;;;;;;18.77;9.50;;;21.50;99.90;;;;;;4991838;28;20450;-53
2022/08/02 09:19:25;;;;;;;13.00;10.13;;;21.50;99.90;;;;;;4985503;28;20027;-53
2022/08/02 09:22:06;;;;;;;16.90;10.60;;;21.60;99.90;;;;;;4991946;28;20038;-54
2022/08/02 09:24:46;;;;;;;13.18;8.00;;;21.70;99.90;;;;;;4991867;28;20038;-54
2022/08/02 09:27:14;;;;;;;11.00;7.63;;;21.80;99.90;;;;;;4991666;28;20775;-54
2022/08/02 09:29:44;;;;;;;9.40;7.82;;;21.80;99.90;;;;;;4991709;28;20565;-54
2022/08/02 09:32:10;;;;;;;12.25;8.95;;;21.90;99.90;;;;;;4991568;28;20069;-54
2022/08/02 09:34:47;;;;;;;9.82;7.70;;;21.90;99.90;;;;;;4991608;28;20054;-54
2022/08/02 09:37:22;;;;;;;10.20;6.70;;;22.20;99.90;;;;;;4990737;28;20394;-54
2022/08/02 09:39:48;;;;;;;10.63;7.57;;;22.20;99.90;;;;;;4991540;28;20038;-54
2022/08/02 09:42:14;;;;;;;12.90;8.05;;;22.20;99.90;;;;;;4991364;28;20042;-54
2022/08/02 09:44:51;;;;;;;13.98;9.52;;;22.20;99.90;;;;;;4995526;28;20038;-54
2022/08/02 09:47:16;;;;;;;13.97;8.30;;;22.20;99.90;;;;;;4999342;28;20015;-54
2022/08/02 09:49:46;;;;;;;15.20;9.07;;;22.10;99.90;;;;;;4999568;28;20030;-54
2022/08/02 09:52:13;;;;;;;10.25;8.13;;;22.10;99.90;;;;;;4997516;28;20033;-54
2022/08/02 09:54:39;;;;;;;12.13;8.10;;;22.00;99.90;;;;;;4995018;28;20034;-55
2022/08/02 09:57:05;;;;;;;10.18;7.43;;;22.10;99.90;;;;;;4990553;28;20068;-55
2022/08/02 09:59:32;;;;;;;8.80;7.53;;;22.30;99.90;;;;;;4995554;28;20495;-55
2022/08/02 10:01:58;;;;;;;11.43;7.72;;;22.70;99.90;;;;;;4991370;28;20512;-54
2022/08/02 10:04:28;;;;;;;10.63;6.68;;;23.00;99.90;;;;;;4989486;28;20101;-53
2022/08/02 10:06:54;;;;;;;8.80;6.07;;;22.90;99.90;;;;;;4985770;28;20034;-53
2022/08/02 10:09:21;;;;;;;7.05;5.80;;;23.00;99.90;;;;;;4990217;28;20061;-54
2022/08/02 10:11:47;;;;;;;12.30;6.28;;;23.00;99.90;;;;;;4989936;28;20458;-53
2022/08/02 10:14:13;;;;;;;8.50;6.33;;;23.00;99.90;;;;;;4989791;28;20389;-54
2022/08/02 10:16:42;;;;;;;9.43;6.90;;;22.90;99.90;;;;;;4989561;28;20034;-53
2022/08/02 10:19:08;;;;;;;8.98;6.47;;;22.80;99.90;;;;;;4989812;28;20381;-53
2022/08/02 10:21:56;;;;;;;7.45;6.57;;;22.80;99.90;;;;;;4995586;28;20435;-54
2022/08/02 10:24:25;;;;;;;8.30;6.78;;;22.70;99.90;;;;;;4987702;28;20235;-54
2022/08/02 10:26:52;;;;;;;9.93;7.03;;;23.00;99.90;;;;;;4990073;28;20041;-54
2022/08/02 10:29:19;;;;;;;8.52;5.53;;;23.20;99.90;;;;;;4990548;28;20133;-54
2022/08/02 10:32:20;;;;;;;6.18;5.57;;;23.20;99.90;;;;;;4989922;28;20505;-53
2022/08/02 10:34:53;;;;;;;9.88;6.28;;;23.20;99.90;;;;;;4966508;28;20470;-53
2022/08/02 10:37:21;;;;;;;7.88;6.38;;;23.20;99.90;;;;;;4993525;28;20072;-53
2022/08/02 10:39:55;;;;;;;10.90;6.13;;;23.30;99.90;;;;;;4999719;28;20018;-53
2022/08/02 10:42:43;;;;;;;11.40;6.25;;;23.50;99.90;;;;;;4997191;28;20034;-53
2022/08/02 10:45:11;;;;;;;16.33;6.28;;;23.90;99.90;;;;;;5000410;28;20042;-53
2022/08/02 10:47:37;;;;;;;9.85;5.38;;;24.10;99.90;;;;;;4973505;28;20085;-53
2022/08/02 10:50:03;;;;;;;12.00;5.60;;;24.10;99.90;;;;;;4996349;28;20477;-54
2022/08/02 10:52:32;;;;;;;8.57;5.05;;;24.30;99.90;;;;;;4996386;28;20042;-53
2022/08/02 10:55:10;;;;;;;9.10;5.20;;;24.40;99.90;;;;;;4988456;28;20029;-54
2022/08/02 10:57:35;;;;;;;;;;;24.70;99.90;;;;;;5007613;28;20026;-54
2022/08/02 11:00:01;;;;;;;6.90;5.25;;;24.70;99.90;;;;;;5005173;28;19916;-54
2022/08/02 11:02:39;;;;;;;8.85;4.60;;;24.90;99.90;;;;;;5006539;28;20025;-54
2022/08/02 11:05:07;;;;;;;8.82;4.75;;;25.30;99.90;;;;;;4996227;28;20038;-54
2022/08/02 11:07:39;;;;;;;8.57;4.88;;;25.60;99.90;;;;;;5003728;28;20025;-54
2022/08/02 11:10:29;;;;;;;7.88;4.75;;;25.70;99.90;;;;;;5005279;28;20034;-54
2022/08/02 11:13:25;;;;;;;12.40;4.40;;;25.40;99.90;;;;;;5006040;28;20080;-54
2022/08/02 11:15:56;;;;;;;6.38;4.05;;;25.10;99.90;;;;;;4988606;28;20133;-54
2022/08/02 11:18:42;;;;;;;6.10;4.40;;;25.00;99.90;;;;;;5002613;28;20304;-54
2022/08/02 11:21:27;;;;;;;11.32;4.32;;;25.10;99.90;;;;;;5004313;28;20022;-53
2022/08/02 11:23:54;;;;;;;5.95;4.57;;;25.30;99.90;;;;;;5005110;28;20026;-54
2022/08/02 11:26:32;;;;;;;18.40;4.13;;;25.30;99.90;;;;;;4995186;28;20030;-53
2022/08/02 11:28:59;;;;;;;11.38;5.03;;;25.40;99.90;;;;;;4990544;28;20032;-53
2022/08/02 11:31:26;;;;;;;6.65;4.45;;;25.50;99.90;;;;;;5005220;28;20161;-53
2022/08/02 11:33:52;;;;;;;9.80;3.83;;;25.60;99.90;;;;;;5003873;28;20783;-54
2022/08/02 11:36:18;;;;;;;7.07;3.80;;;25.70;99.90;;;;;;5001494;28;20036;-54
2022/08/02 11:38:44;;;;;;;6.75;3.55;;;26.00;99.90;;;;;;5011895;28;20021;-54
2022/08/02 11:41:18;;;;;;;7.57;4.35;;;26.50;99.90;;;;;;5005710;28;20026;-53
2022/08/02 11:43:45;;;;;;;8.88;4.35;;;26.40;99.90;;;;;;5003180;28;20018;-53
2022/08/02 11:46:14;;;;;;;14.30;5.07;;;26.10;99.90;;;;;;5004084;28;20608;-53
2022/08/02 11:48:42;;;;;;;8.82;4.65;;;26.30;99.90;;;;;;5001916;28;20027;-54
2022/08/02 11:51:18;;;;;;;5.07;3.55;;;26.60;99.90;;;;;;5004749;28;20160;-54
2022/08/02 11:53:50;;;;;;;6.47;4.05;;;27.00;99.90;;;;;;5002840;28;20019;-53
2022/08/02 11:56:24;;;;;;;4.63;3.78;;;27.10;99.90;;;;;;5004017;28;20162;-53
2022/08/02 11:59:07;;;;;;;6.35;4.07;;;27.10;99.90;;;;;;5004385;28;20050;-54
2022/08/02 12:01:35;;;;;;;6.10;3.85;;;26.90;99.90;;;;;;5001575;28;20075;-54
2022/08/02 12:04:01;;;;;;;9.13;4.28;;;26.90;99.90;;;;;;4998665;28;20038;-53
2022/08/02 12:06:28;;;;;;;6.88;4.28;;;27.30;99.80;;;;;;5001401;28;20030;-54
2022/08/02 12:09:07;;;;;;;7.07;3.85;;;27.20;99.90;;;;;;4991767;28;20047;-54
2022/08/02 12:11:35;;;;;;;7.15;3.63;;;27.00;99.60;;;;;;4992052;28;20038;-54
2022/08/02 12:14:02;;;;;;;6.30;3.42;;;26.60;99.60;;;;;;4991647;28;20037;-54
2022/08/02 12:19:22;;;;;;;7.60;3.83;;;26.60;99.90;;;;;;4987961;28;20052;-56
2022/08/02 12:22:13;;;;;;;6.80;3.80;;;27.10;97.60;;;;;;5002901;28;20028;-53
2022/08/02 12:24:41;;;;;;;8.02;3.67;;;27.20;99.90;;;;;;4992383;28;20044;-53
2022/08/02 12:27:07;;;;;;;4.93;3.60;;;27.20;99.90;;;;;;4989868;28;20030;-54
2022/08/02 12:29:38;;;;;;;9.20;3.47;;;27.20;99.90;;;;;;4992685;28;20030;-53
2022/08/02 12:32:05;;;;;;;7.95;4.15;;;27.10;99.90;;;;;;4992722;28;20105;-54
2022/08/02 12:34:32;;;;;;;;;;;27.10;99.90;;;;;;4993311;28;20031;-54
2022/08/02 12:37:07;;;;;;;6.78;3.22;;;26.90;99.90;;;;;;4996941;28;19964;-53
2022/08/02 12:39:38;;;;;;;11.20;4.90;;;26.70;99.90;;;;;;4991794;28;20105;-54
2022/08/02 12:42:06;;;;;;;6.57;3.53;;;26.40;99.90;;;;;;4991403;28;20033;-53
2022/08/02 12:44:32;;;;;;;6.03;3.75;;;26.40;99.90;;;;;;5001117;28;20026;-53
2022/08/02 12:47:03;;;;;;;6.63;4.50;;;26.30;99.90;;;;;;4998358;28;20109;-54